sensor_id;sensor_type;location;lat;lon;timestamp;pressure;altitude;pressure_sealevel;temperature;humidity
70916;BME280;58557;50.982;-3.222;2023-02-28T00:02:00;102643.34;;;7.21;42.76
70916;BME280;58557;50.982;-3.222;2023-02-28T00:04:25;102645.48;;;7.34;43.25
70916;BME280;58557;50.982;-3.222;2023-02-28T00:06:51;102652.04;;;7.17;43.11
70916;BME280;58557;50.982;-3.222;2023-02-28T00:09:16;102653.29;;;7.45;42.59
70916;BME280;58557;50.982;-3.222;2023-02-28T00:11:42;102652.83;;;7.14;42.64
70916;BME280;58557;50.982;-3.222;2023-02-28T00:14:07;102661.06;;;7.25;43.10
70916;BME280;58557;50.982;-3.222;2023-02-28T00:16:33;102660.31;;;7.84;41.80
70916;BME280;58557;50.982;-3.222;2023-02-28T00:18:58;102660.04;;;7.91;41.11
70916;BME280;58557;50.982;-3.222;2023-02-28T00:21:24;102660.83;;;8.18;41.32
70916;BME280;58557;50.982;-3.222;2023-02-28T00:23:50;102664.31;;;7.67;41.11
70916;BME280;58557;50.982;-3.222;2023-02-28T00:26:15;102667.27;;;7.79;42.03
70916;BME280;58557;50.982;-3.222;2023-02-28T00:28:41;102660.58;;;7.33;42.15
70916;BME280;58557;50.982;-3.222;2023-02-28T00:31:07;102659.51;;;7.29;42.27
70916;BME280;58557;50.982;-3.222;2023-02-28T00:33:32;102657.46;;;7.43;42.74
70916;BME280;58557;50.982;-3.222;2023-02-28T00:36:04;102660.52;;;7.57;42.15
70916;BME280;58557;50.982;-3.222;2023-02-28T00:38:23;102655.98;;;8.37;41.32
70916;BME280;58557;50.982;-3.222;2023-02-28T00:40:48;102654.37;;;7.46;42.46
70916;BME280;58557;50.982;-3.222;2023-02-28T00:43:14;102654.97;;;7.17;42.27
70916;BME280;58557;50.982;-3.222;2023-02-28T00:45:39;102657.21;;;7.51;42.37
70916;BME280;58557;50.982;-3.222;2023-02-28T00:48:05;102660.74;;;6.98;43.18
70916;BME280;58557;50.982;-3.222;2023-02-28T00:50:30;102651.66;;;7.25;43.21
70916;BME280;58557;50.982;-3.222;2023-02-28T00:52:56;102652.58;;;7.45;42.63
70916;BME280;58557;50.982;-3.222;2023-02-28T00:55:22;102657.44;;;6.75;43.07
70916;BME280;58557;50.982;-3.222;2023-02-28T00:57:47;102651.27;;;7.28;43.53
70916;BME280;58557;50.982;-3.222;2023-02-28T01:00:13;102654.12;;;7.25;42.54
70916;BME280;58557;50.982;-3.222;2023-02-28T01:02:38;102664.84;;;7.03;42.96
70916;BME280;58557;50.982;-3.222;2023-02-28T01:05:05;102671.23;;;6.83;43.20
70916;BME280;58557;50.982;-3.222;2023-02-28T01:07:29;102672.05;;;7.42;43.08
70916;BME280;58557;50.982;-3.222;2023-02-28T01:09:54;102675.12;;;7.32;44.01
70916;BME280;58557;50.982;-3.222;2023-02-28T01:12:20;102673.15;;;6.68;43.33
70916;BME280;58557;50.982;-3.222;2023-02-28T01:14:46;102669.82;;;7.59;42.21
70916;BME280;58557;50.982;-3.222;2023-02-28T01:17:11;102665.89;;;7.37;41.96
70916;BME280;58557;50.982;-3.222;2023-02-28T01:19:37;102673.75;;;7.87;41.21
70916;BME280;58557;50.982;-3.222;2023-02-28T01:22:03;102675.23;;;7.56;42.33
70916;BME280;58557;50.982;-3.222;2023-02-28T01:24:28;102676.39;;;7.13;44.51
70916;BME280;58557;50.982;-3.222;2023-02-28T01:26:53;102675.36;;;7.44;44.07
70916;BME280;58557;50.982;-3.222;2023-02-28T01:29:18;102676.76;;;7.28;44.08
70916;BME280;58557;50.982;-3.222;2023-02-28T01:31:43;102678.19;;;6.58;44.42
70916;BME280;58557;50.982;-3.222;2023-02-28T01:34:09;102674.58;;;6.83;44.20
70916;BME280;58557;50.982;-3.222;2023-02-28T01:36:34;102676.76;;;6.73;44.15
70916;BME280;58557;50.982;-3.222;2023-02-28T01:38:59;102679.24;;;6.65;44.00
70916;BME280;58557;50.982;-3.222;2023-02-28T01:41:27;102683.78;;;6.30;43.84
70916;BME280;58557;50.982;-3.222;2023-02-28T01:43:56;102685.18;;;6.48;44.29
70916;BME280;58557;50.982;-3.222;2023-02-28T01:46:16;102680.99;;;6.47;43.93
70916;BME280;58557;50.982;-3.222;2023-02-28T01:48:42;102676.91;;;5.70;45.34
70916;BME280;58557;50.982;-3.222;2023-02-28T01:51:11;102683.34;;;6.24;44.76
70916;BME280;58557;50.982;-3.222;2023-02-28T01:53:33;102685.46;;;6.79;43.70
70916;BME280;58557;50.982;-3.222;2023-02-28T01:55:57;102688.74;;;6.52;44.08
70916;BME280;58557;50.982;-3.222;2023-02-28T01:58:22;102684.45;;;6.29;43.82
70916;BME280;58557;50.982;-3.222;2023-02-28T02:00:47;102683.81;;;5.96;44.88
70916;BME280;58557;50.982;-3.222;2023-02-28T02:03:14;102685.17;;;6.03;44.92
70916;BME280;58557;50.982;-3.222;2023-02-28T02:05:39;102685.43;;;6.14;43.42
70916;BME280;58557;50.982;-3.222;2023-02-28T02:08:05;102683.20;;;6.44;43.96
70916;BME280;58557;50.982;-3.222;2023-02-28T02:10:32;102684.23;;;5.85;44.43
70916;BME280;58557;50.982;-3.222;2023-02-28T02:15:24;102681.81;;;6.03;45.33
70916;BME280;58557;50.982;-3.222;2023-02-28T02:17:49;102684.22;;;5.78;45.49
70916;BME280;58557;50.982;-3.222;2023-02-28T02:25:15;102678.74;;;5.50;45.35
70916;BME280;58557;50.982;-3.222;2023-02-28T02:27:39;102679.11;;;5.41;45.75
70916;BME280;58557;50.982;-3.222;2023-02-28T02:30:04;102677.90;;;5.64;45.12
70916;BME280;58557;50.982;-3.222;2023-02-28T02:32:28;102674.13;;;5.88;44.04
70916;BME280;58557;50.982;-3.222;2023-02-28T02:34:52;102668.79;;;6.43;43.84
70916;BME280;58557;50.982;-3.222;2023-02-28T02:37:15;102661.58;;;5.08;45.97
70916;BME280;58557;50.982;-3.222;2023-02-28T02:39:40;102665.54;;;5.91;44.51
70916;BME280;58557;50.982;-3.222;2023-02-28T02:42:01;102661.66;;;5.80;44.37
70916;BME280;58557;50.982;-3.222;2023-02-28T02:44:28;102662.64;;;5.95;45.22
70916;BME280;58557;50.982;-3.222;2023-02-28T02:46:54;102663.86;;;5.63;46.17
70916;BME280;58557;50.982;-3.222;2023-02-28T02:49:20;102663.39;;;5.08;45.18
70916;BME280;58557;50.982;-3.222;2023-02-28T02:51:41;102660.28;;;4.88;47.32
70916;BME280;58557;50.982;-3.222;2023-02-28T02:54:10;102664.57;;;4.89;45.85
70916;BME280;58557;50.982;-3.222;2023-02-28T02:56:33;102669.69;;;4.62;46.94
70916;BME280;58557;50.982;-3.222;2023-02-28T02:59:01;102671.39;;;4.01;47.71
70916;BME280;58557;50.982;-3.222;2023-02-28T03:01:25;102666.00;;;5.23;47.11
70916;BME280;58557;50.982;-3.222;2023-02-28T03:03:48;102671.76;;;5.35;46.54
70916;BME280;58557;50.982;-3.222;2023-02-28T03:06:15;102675.10;;;5.62;45.50
70916;BME280;58557;50.982;-3.222;2023-02-28T03:08:39;102669.61;;;4.75;45.56
70916;BME280;58557;50.982;-3.222;2023-02-28T03:11:06;102669.79;;;4.76;45.98
70916;BME280;58557;50.982;-3.222;2023-02-28T03:16:07;102674.50;;;5.00;45.99
70916;BME280;58557;50.982;-3.222;2023-02-28T03:18:26;102674.55;;;5.33;46.36
70916;BME280;58557;50.982;-3.222;2023-02-28T03:20:52;102672.54;;;6.04;43.83
70916;BME280;58557;50.982;-3.222;2023-02-28T03:23:16;102669.77;;;5.04;46.86
70916;BME280;58557;50.982;-3.222;2023-02-28T03:25:42;102672.69;;;4.96;46.02
70916;BME280;58557;50.982;-3.222;2023-02-28T03:28:08;102671.99;;;5.20;45.38
70916;BME280;58557;50.982;-3.222;2023-02-28T03:30:34;102671.87;;;4.13;46.04
70916;BME280;58557;50.982;-3.222;2023-02-28T03:32:56;102667.17;;;5.23;46.20
70916;BME280;58557;50.982;-3.222;2023-02-28T03:35:21;102668.08;;;5.47;45.49
70916;BME280;58557;50.982;-3.222;2023-02-28T03:37:45;102672.69;;;4.83;46.45
70916;BME280;58557;50.982;-3.222;2023-02-28T03:40:13;102676.69;;;5.44;45.87
70916;BME280;58557;50.982;-3.222;2023-02-28T03:42:36;102671.37;;;5.12;45.02
70916;BME280;58557;50.982;-3.222;2023-02-28T03:45:04;102674.38;;;5.06;45.59
70916;BME280;58557;50.982;-3.222;2023-02-28T03:47:30;102676.22;;;5.46;45.19
70916;BME280;58557;50.982;-3.222;2023-02-28T03:49:55;102678.98;;;5.06;44.90
70916;BME280;58557;50.982;-3.222;2023-02-28T03:52:21;102677.44;;;4.98;45.95
70916;BME280;58557;50.982;-3.222;2023-02-28T03:54:46;102682.50;;;4.22;46.74
70916;BME280;58557;50.982;-3.222;2023-02-28T03:57:13;102678.24;;;5.02;46.70
70916;BME280;58557;50.982;-3.222;2023-02-28T03:59:37;102680.48;;;5.21;46.35
70916;BME280;58557;50.982;-3.222;2023-02-28T04:02:01;102680.82;;;5.30;45.24
70916;BME280;58557;50.982;-3.222;2023-02-28T04:04:26;102682.06;;;4.82;45.69
70916;BME280;58557;50.982;-3.222;2023-02-28T04:06:51;102686.63;;;5.51;43.87
70916;BME280;58557;50.982;-3.222;2023-02-28T04:09:16;102686.12;;;4.87;46.43
70916;BME280;58557;50.982;-3.222;2023-02-28T04:11:44;102681.32;;;5.30;46.14
70916;BME280;58557;50.982;-3.222;2023-02-28T04:14:08;102684.70;;;4.18;47.09
70916;BME280;58557;50.982;-3.222;2023-02-28T04:16:33;102683.62;;;5.16;46.18
70916;BME280;58557;50.982;-3.222;2023-02-28T04:18:57;102687.89;;;4.96;45.38
70916;BME280;58557;50.982;-3.222;2023-02-28T04:21:23;102689.71;;;5.83;44.60
70916;BME280;58557;50.982;-3.222;2023-02-28T04:23:48;102688.65;;;4.87;45.49
70916;BME280;58557;50.982;-3.222;2023-02-28T04:26:14;102693.66;;;3.94;46.24
70916;BME280;58557;50.982;-3.222;2023-02-28T04:28:40;102697.40;;;3.40;49.10
70916;BME280;58557;50.982;-3.222;2023-02-28T04:31:05;102701.48;;;4.40;47.88
70916;BME280;58557;50.982;-3.222;2023-02-28T04:33:32;102701.18;;;5.23;46.31
70916;BME280;58557;50.982;-3.222;2023-02-28T04:35:59;102701.76;;;5.27;45.32
70916;BME280;58557;50.982;-3.222;2023-02-28T04:38:22;102701.14;;;5.29;45.05
70916;BME280;58557;50.982;-3.222;2023-02-28T04:40:48;102702.88;;;4.79;44.90
70916;BME280;58557;50.982;-3.222;2023-02-28T04:43:13;102707.39;;;4.75;44.77
70916;BME280;58557;50.982;-3.222;2023-02-28T04:45:39;102710.78;;;5.82;43.91
70916;BME280;58557;50.982;-3.222;2023-02-28T04:48:04;102709.52;;;5.49;44.66
70916;BME280;58557;50.982;-3.222;2023-02-28T04:50:30;102710.20;;;4.29;46.74
70916;BME280;58557;50.982;-3.222;2023-02-28T04:52:56;102705.95;;;4.74;46.28
70916;BME280;58557;50.982;-3.222;2023-02-28T04:55:21;102705.80;;;5.04;46.91
70916;BME280;58557;50.982;-3.222;2023-02-28T04:57:46;102712.29;;;4.78;47.49
70916;BME280;58557;50.982;-3.222;2023-02-28T05:00:12;102713.73;;;5.01;46.29
70916;BME280;58557;50.982;-3.222;2023-02-28T05:02:38;102714.08;;;4.63;48.09
70916;BME280;58557;50.982;-3.222;2023-02-28T05:05:03;102717.67;;;4.46;47.54
70916;BME280;58557;50.982;-3.222;2023-02-28T05:07:28;102718.06;;;5.16;45.66
70916;BME280;58557;50.982;-3.222;2023-02-28T05:09:54;102720.91;;;5.30;46.19
70916;BME280;58557;50.982;-3.222;2023-02-28T05:12:19;102722.02;;;5.21;46.56
70916;BME280;58557;50.982;-3.222;2023-02-28T05:14:44;102719.49;;;5.80;45.63
70916;BME280;58557;50.982;-3.222;2023-02-28T05:17:10;102718.17;;;4.82;47.17
70916;BME280;58557;50.982;-3.222;2023-02-28T05:19:35;102717.33;;;4.11;47.90
70916;BME280;58557;50.982;-3.222;2023-02-28T05:22:01;102715.90;;;4.74;47.01
70916;BME280;58557;50.982;-3.222;2023-02-28T05:24:27;102717.78;;;4.69;46.24
70916;BME280;58557;50.982;-3.222;2023-02-28T05:26:54;102712.01;;;5.56;45.81
70916;BME280;58557;50.982;-3.222;2023-02-28T05:29:18;102714.09;;;5.14;44.88
70916;BME280;58557;50.982;-3.222;2023-02-28T05:31:43;102722.89;;;4.79;47.52
70916;BME280;58557;50.982;-3.222;2023-02-28T05:34:09;102721.97;;;4.68;47.17
70916;BME280;58557;50.982;-3.222;2023-02-28T05:36:36;102722.64;;;4.60;45.77
70916;BME280;58557;50.982;-3.222;2023-02-28T05:39:00;102721.25;;;5.11;45.02
70916;BME280;58557;50.982;-3.222;2023-02-28T05:41:25;102725.87;;;4.56;46.15
70916;BME280;58557;50.982;-3.222;2023-02-28T05:43:50;102723.94;;;4.59;46.37
70916;BME280;58557;50.982;-3.222;2023-02-28T05:46:16;102723.03;;;4.95;45.67
70916;BME280;58557;50.982;-3.222;2023-02-28T05:48:42;102725.63;;;5.14;43.47
70916;BME280;58557;50.982;-3.222;2023-02-28T05:51:08;102726.08;;;5.25;43.86
70916;BME280;58557;50.982;-3.222;2023-02-28T05:53:33;102727.28;;;4.40;45.15
70916;BME280;58557;50.982;-3.222;2023-02-28T05:55:59;102726.84;;;5.11;45.14
70916;BME280;58557;50.982;-3.222;2023-02-28T05:58:25;102732.71;;;4.88;44.87
70916;BME280;58557;50.982;-3.222;2023-02-28T06:00:50;102733.10;;;4.74;44.73
70916;BME280;58557;50.982;-3.222;2023-02-28T06:03:15;102740.97;;;4.55;44.40
70916;BME280;58557;50.982;-3.222;2023-02-28T06:05:41;102740.14;;;5.15;44.18
70916;BME280;58557;50.982;-3.222;2023-02-28T06:08:06;102745.12;;;4.35;44.87
70916;BME280;58557;50.982;-3.222;2023-02-28T06:10:31;102745.71;;;4.59;45.45
70916;BME280;58557;50.982;-3.222;2023-02-28T06:12:59;102745.59;;;4.61;44.93
70916;BME280;58557;50.982;-3.222;2023-02-28T06:15:23;102746.59;;;4.41;45.53
70916;BME280;58557;50.982;-3.222;2023-02-28T06:17:48;102744.39;;;4.40;45.13
70916;BME280;58557;50.982;-3.222;2023-02-28T06:20:13;102742.38;;;4.96;44.72
70916;BME280;58557;50.982;-3.222;2023-02-28T06:22:39;102749.07;;;4.15;45.61
70916;BME280;58557;50.982;-3.222;2023-02-28T06:25:05;102754.29;;;3.85;45.48
70916;BME280;58557;50.982;-3.222;2023-02-28T06:27:30;102753.36;;;4.94;46.06
70916;BME280;58557;50.982;-3.222;2023-02-28T06:29:55;102745.41;;;4.93;44.20
70916;BME280;58557;50.982;-3.222;2023-02-28T06:32:20;102743.79;;;4.77;44.85
70916;BME280;58557;50.982;-3.222;2023-02-28T06:34:46;102743.05;;;4.71;45.23
70916;BME280;58557;50.982;-3.222;2023-02-28T06:37:12;102736.55;;;5.11;44.72
70916;BME280;58557;50.982;-3.222;2023-02-28T06:39:37;102738.37;;;5.37;44.94
70916;BME280;58557;50.982;-3.222;2023-02-28T06:42:03;102736.50;;;4.94;45.57
70916;BME280;58557;50.982;-3.222;2023-02-28T06:44:28;102738.14;;;5.50;43.79
70916;BME280;58557;50.982;-3.222;2023-02-28T06:46:53;102736.20;;;6.02;43.65
70916;BME280;58557;50.982;-3.222;2023-02-28T06:49:18;102731.08;;;5.82;43.95
70916;BME280;58557;50.982;-3.222;2023-02-28T06:51:44;102728.41;;;5.17;44.01
70916;BME280;58557;50.982;-3.222;2023-02-28T06:54:09;102728.07;;;4.61;44.02
70916;BME280;58557;50.982;-3.222;2023-02-28T06:56:34;102725.36;;;4.66;44.97
70916;BME280;58557;50.982;-3.222;2023-02-28T06:59:00;102723.52;;;4.58;45.14
70916;BME280;58557;50.982;-3.222;2023-02-28T07:01:25;102725.72;;;3.83;45.77
70916;BME280;58557;50.982;-3.222;2023-02-28T07:03:51;102725.45;;;4.51;44.38
70916;BME280;58557;50.982;-3.222;2023-02-28T07:06:16;102727.89;;;5.22;44.71
70916;BME280;58557;50.982;-3.222;2023-02-28T07:08:42;102727.44;;;5.12;43.82
70916;BME280;58557;50.982;-3.222;2023-02-28T07:11:08;102723.36;;;4.50;46.28
70916;BME280;58557;50.982;-3.222;2023-02-28T07:13:33;102737.12;;;4.77;45.31
70916;BME280;58557;50.982;-3.222;2023-02-28T07:16:00;102734.11;;;4.91;45.64
70916;BME280;58557;50.982;-3.222;2023-02-28T07:18:25;102740.18;;;4.39;46.68
70916;BME280;58557;50.982;-3.222;2023-02-28T07:20:50;102738.90;;;5.24;45.88
70916;BME280;58557;50.982;-3.222;2023-02-28T07:23:16;102743.77;;;5.19;45.13
70916;BME280;58557;50.982;-3.222;2023-02-28T07:25:41;102747.85;;;5.54;45.81
70916;BME280;58557;50.982;-3.222;2023-02-28T07:28:07;102748.99;;;5.95;43.98
70916;BME280;58557;50.982;-3.222;2023-02-28T07:30:32;102750.25;;;6.10;43.77
70916;BME280;58557;50.982;-3.222;2023-02-28T07:32:58;102755.14;;;5.51;44.51
70916;BME280;58557;50.982;-3.222;2023-02-28T07:35:23;102759.86;;;5.57;44.57
70916;BME280;58557;50.982;-3.222;2023-02-28T07:37:50;102767.01;;;5.81;44.70
70916;BME280;58557;50.982;-3.222;2023-02-28T07:40:15;102768.95;;;5.77;44.46
70916;BME280;58557;50.982;-3.222;2023-02-28T07:42:41;102769.91;;;5.45;45.85
70916;BME280;58557;50.982;-3.222;2023-02-28T07:45:07;102775.60;;;6.44;45.56
70916;BME280;58557;50.982;-3.222;2023-02-28T07:47:31;102782.18;;;6.50;46.35
70916;BME280;58557;50.982;-3.222;2023-02-28T07:49:56;102790.71;;;7.19;47.76
70916;BME280;58557;50.982;-3.222;2023-02-28T07:52:22;102789.06;;;7.84;46.14
70916;BME280;58557;50.982;-3.222;2023-02-28T07:54:47;102792.55;;;6.51;45.56
70916;BME280;58557;50.982;-3.222;2023-02-28T07:57:13;102787.90;;;8.52;43.34
70916;BME280;58557;50.982;-3.222;2023-02-28T07:59:38;102793.50;;;8.43;44.77
70916;BME280;58557;50.982;-3.222;2023-02-28T08:02:04;102798.60;;;8.17;45.75
70916;BME280;58557;50.982;-3.222;2023-02-28T08:04:32;102801.98;;;9.36;45.13
70916;BME280;58557;50.982;-3.222;2023-02-28T08:06:54;102802.20;;;10.28;42.84
70916;BME280;58557;50.982;-3.222;2023-02-28T08:09:20;102802.44;;;11.45;41.63
70916;BME280;58557;50.982;-3.222;2023-02-28T08:11:45;102803.92;;;11.23;40.56
70916;BME280;58557;50.982;-3.222;2023-02-28T08:14:10;102806.13;;;11.66;39.33
70916;BME280;58557;50.982;-3.222;2023-02-28T08:16:36;102806.59;;;11.28;37.74
70916;BME280;58557;50.982;-3.222;2023-02-28T08:19:01;102806.21;;;12.03;37.70
70916;BME280;58557;50.982;-3.222;2023-02-28T08:21:26;102808.72;;;12.00;36.68
70916;BME280;58557;50.982;-3.222;2023-02-28T08:23:51;102802.96;;;12.80;35.42
70916;BME280;58557;50.982;-3.222;2023-02-28T08:26:16;102803.87;;;11.89;35.73
70916;BME280;58557;50.982;-3.222;2023-02-28T08:28:41;102803.40;;;12.20;35.13
70916;BME280;58557;50.982;-3.222;2023-02-28T08:31:09;102804.65;;;11.57;36.10
70916;BME280;58557;50.982;-3.222;2023-02-28T08:33:31;102805.85;;;11.68;36.55
70916;BME280;58557;50.982;-3.222;2023-02-28T08:35:57;102806.39;;;11.49;35.87
70916;BME280;58557;50.982;-3.222;2023-02-28T08:38:22;102808.99;;;11.41;37.44
70916;BME280;58557;50.982;-3.222;2023-02-28T08:40:47;102812.77;;;11.80;37.00
70916;BME280;58557;50.982;-3.222;2023-02-28T08:43:12;102814.59;;;11.70;36.11
70916;BME280;58557;50.982;-3.222;2023-02-28T08:45:37;102809.34;;;11.18;36.66
70916;BME280;58557;50.982;-3.222;2023-02-28T08:48:04;102811.89;;;11.61;37.21
70916;BME280;58557;50.982;-3.222;2023-02-28T08:50:28;102809.13;;;11.96;36.00
70916;BME280;58557;50.982;-3.222;2023-02-28T08:52:54;102807.58;;;11.94;36.52
70916;BME280;58557;50.982;-3.222;2023-02-28T08:55:20;102809.38;;;11.40;36.67
70916;BME280;58557;50.982;-3.222;2023-02-28T08:57:45;102807.48;;;11.34;37.25
70916;BME280;58557;50.982;-3.222;2023-02-28T09:00:11;102807.75;;;11.61;36.50
70916;BME280;58557;50.982;-3.222;2023-02-28T09:02:35;102807.05;;;12.28;36.04
70916;BME280;58557;50.982;-3.222;2023-02-28T09:05:01;102811.47;;;11.95;35.71
70916;BME280;58557;50.982;-3.222;2023-02-28T09:07:27;102811.35;;;12.29;35.81
70916;BME280;58557;50.982;-3.222;2023-02-28T09:09:52;102810.93;;;11.95;36.01
70916;BME280;58557;50.982;-3.222;2023-02-28T09:12:18;102812.46;;;11.94;36.05
70916;BME280;58557;50.982;-3.222;2023-02-28T09:14:43;102811.27;;;11.78;36.63
70916;BME280;58557;50.982;-3.222;2023-02-28T09:17:08;102811.17;;;11.63;36.50
70916;BME280;58557;50.982;-3.222;2023-02-28T09:19:34;102810.80;;;11.77;36.73
70916;BME280;58557;50.982;-3.222;2023-02-28T09:21:58;102810.38;;;12.48;36.33
70916;BME280;58557;50.982;-3.222;2023-02-28T09:24:24;102810.30;;;11.01;38.19
70916;BME280;58557;50.982;-3.222;2023-02-28T09:26:49;102805.21;;;11.37;37.89
70916;BME280;58557;50.982;-3.222;2023-02-28T09:29:14;102806.74;;;11.49;38.23
70916;BME280;58557;50.982;-3.222;2023-02-28T09:31:40;102810.04;;;11.96;37.69
70916;BME280;58557;50.982;-3.222;2023-02-28T09:34:05;102810.52;;;11.34;38.87
70916;BME280;58557;50.982;-3.222;2023-02-28T09:36:31;102809.26;;;11.70;38.07
70916;BME280;58557;50.982;-3.222;2023-02-28T09:38:56;102807.93;;;11.47;38.98
70916;BME280;58557;50.982;-3.222;2023-02-28T09:41:24;102810.13;;;12.03;38.20
70916;BME280;58557;50.982;-3.222;2023-02-28T09:43:50;102807.70;;;11.50;38.24
70916;BME280;58557;50.982;-3.222;2023-02-28T09:46:25;102810.45;;;11.65;38.98
70916;BME280;58557;50.982;-3.222;2023-02-28T09:48:42;102808.55;;;11.01;40.02
70916;BME280;58557;50.982;-3.222;2023-02-28T09:51:05;102806.32;;;10.75;40.95
70916;BME280;58557;50.982;-3.222;2023-02-28T09:53:32;102804.75;;;10.50;41.07
70916;BME280;58557;50.982;-3.222;2023-02-28T09:55:57;102805.81;;;10.96;41.13
70916;BME280;58557;50.982;-3.222;2023-02-28T09:58:26;102808.10;;;11.42;39.80
70916;BME280;58557;50.982;-3.222;2023-02-28T10:00:54;102802.53;;;10.58;41.18
70916;BME280;58557;50.982;-3.222;2023-02-28T10:03:24;102805.13;;;10.25;44.02
70916;BME280;58557;50.982;-3.222;2023-02-28T10:05:39;102805.80;;;9.83;44.06
70916;BME280;58557;50.982;-3.222;2023-02-28T10:08:07;102803.69;;;9.19;45.76
70916;BME280;58557;50.982;-3.222;2023-02-28T10:10:32;102804.25;;;8.84;47.45
70916;BME280;58557;50.982;-3.222;2023-02-28T10:12:56;102800.70;;;8.73;47.94
70916;BME280;58557;50.982;-3.222;2023-02-28T10:15:19;102798.79;;;8.50;48.84
70916;BME280;58557;50.982;-3.222;2023-02-28T10:17:47;102796.05;;;8.62;48.95
70916;BME280;58557;50.982;-3.222;2023-02-28T10:20:12;102790.23;;;8.43;49.75
70916;BME280;58557;50.982;-3.222;2023-02-28T10:22:40;102793.40;;;8.26;50.75
70916;BME280;58557;50.982;-3.222;2023-02-28T10:25:00;102788.13;;;8.90;49.63
70916;BME280;58557;50.982;-3.222;2023-02-28T10:27:28;102786.58;;;8.99;50.14
70916;BME280;58557;50.982;-3.222;2023-02-28T10:29:51;102781.43;;;8.35;51.92
70916;BME280;58557;50.982;-3.222;2023-02-28T10:32:17;102787.74;;;8.00;53.64
70916;BME280;58557;50.982;-3.222;2023-02-28T10:34:40;102788.39;;;7.35;55.37
70916;BME280;58557;50.982;-3.222;2023-02-28T10:37:07;102781.40;;;7.12;56.61
70916;BME280;58557;50.982;-3.222;2023-02-28T10:39:37;102776.25;;;6.58;57.52
70916;BME280;58557;50.982;-3.222;2023-02-28T10:41:57;102774.08;;;6.72;58.25
70916;BME280;58557;50.982;-3.222;2023-02-28T10:44:23;102775.01;;;7.40;56.20
70916;BME280;58557;50.982;-3.222;2023-02-28T10:46:48;102771.27;;;6.35;57.01
70916;BME280;58557;50.982;-3.222;2023-02-28T10:49:16;102767.76;;;6.61;57.82
70916;BME280;58557;50.982;-3.222;2023-02-28T10:51:39;102769.99;;;7.12;56.72
70916;BME280;58557;50.982;-3.222;2023-02-28T10:54:04;102769.98;;;6.57;57.13
70916;BME280;58557;50.982;-3.222;2023-02-28T10:56:29;102768.80;;;7.32;55.58
70916;BME280;58557;50.982;-3.222;2023-02-28T10:58:56;102768.99;;;8.05;53.13
70916;BME280;58557;50.982;-3.222;2023-02-28T11:01:21;102768.79;;;7.44;55.04
70916;BME280;58557;50.982;-3.222;2023-02-28T11:03:43;102769.30;;;7.88;53.00
70916;BME280;58557;50.982;-3.222;2023-02-28T11:06:15;102766.13;;;7.65;53.49
70916;BME280;58557;50.982;-3.222;2023-02-28T11:08:34;102762.53;;;7.21;53.63
70916;BME280;58557;50.982;-3.222;2023-02-28T11:11:04;102759.56;;;7.36;52.79
70916;BME280;58557;50.982;-3.222;2023-02-28T11:13:28;102756.36;;;6.78;53.98
70916;BME280;58557;50.982;-3.222;2023-02-28T11:15:53;102759.14;;;6.72;55.50
70916;BME280;58557;50.982;-3.222;2023-02-28T11:18:23;102760.82;;;6.62;55.93
70916;BME280;58557;50.982;-3.222;2023-02-28T11:20:40;102760.06;;;5.90;56.62
70916;BME280;58557;50.982;-3.222;2023-02-28T11:23:05;102757.43;;;6.71;55.16
70916;BME280;58557;50.982;-3.222;2023-02-28T11:25:32;102757.81;;;6.36;56.54
70916;BME280;58557;50.982;-3.222;2023-02-28T11:27:57;102757.67;;;5.67;58.53
70916;BME280;58557;50.982;-3.222;2023-02-28T11:30:27;102765.38;;;5.27;60.46
70916;BME280;58557;50.982;-3.222;2023-02-28T11:32:49;102766.28;;;6.53;57.44
70916;BME280;58557;50.982;-3.222;2023-02-28T11:35:18;102761.64;;;6.13;57.83
70916;BME280;58557;50.982;-3.222;2023-02-28T11:37:37;102760.82;;;7.13;55.69
70916;BME280;58557;50.982;-3.222;2023-02-28T11:40:01;102766.14;;;7.46;54.00
70916;BME280;58557;50.982;-3.222;2023-02-28T11:42:40;102762.97;;;6.22;55.64
70916;BME280;58557;50.982;-3.222;2023-02-28T11:45:03;102765.69;;;5.63;59.51
70916;BME280;58557;50.982;-3.222;2023-02-28T11:47:24;102758.97;;;6.05;58.09
70916;BME280;58557;50.982;-3.222;2023-02-28T11:49:48;102761.24;;;6.24;56.94
70916;BME280;58557;50.982;-3.222;2023-02-28T11:52:19;102762.64;;;6.47;56.06
70916;BME280;58557;50.982;-3.222;2023-02-28T11:54:47;102764.70;;;6.69;55.96
70916;BME280;58557;50.982;-3.222;2023-02-28T11:57:17;102760.02;;;7.02;55.48
70916;BME280;58557;50.982;-3.222;2023-02-28T11:59:38;102757.47;;;6.56;55.04
70916;BME280;58557;50.982;-3.222;2023-02-28T12:02:04;102757.52;;;6.18;59.14
70916;BME280;58557;50.982;-3.222;2023-02-28T12:04:25;102757.19;;;7.25;56.67
70916;BME280;58557;50.982;-3.222;2023-02-28T12:06:45;102754.45;;;6.24;56.34
70916;BME280;58557;50.982;-3.222;2023-02-28T12:09:20;102750.52;;;7.61;53.75
70916;BME280;58557;50.982;-3.222;2023-02-28T12:11:39;102746.50;;;7.02;54.70
70916;BME280;58557;50.982;-3.222;2023-02-28T12:14:05;102741.21;;;7.89;52.99
70916;BME280;58557;50.982;-3.222;2023-02-28T12:16:32;102734.42;;;6.88;54.45
70916;BME280;58557;50.982;-3.222;2023-02-28T12:19:01;102731.88;;;6.80;55.76
70916;BME280;58557;50.982;-3.222;2023-02-28T12:21:20;102731.37;;;7.32;52.98
70916;BME280;58557;50.982;-3.222;2023-02-28T12:23:52;102727.00;;;6.63;54.11
70916;BME280;58557;50.982;-3.222;2023-02-28T12:26:10;102719.57;;;6.65;54.89
70916;BME280;58557;50.982;-3.222;2023-02-28T12:28:33;102720.62;;;7.21;53.57
70916;BME280;58557;50.982;-3.222;2023-02-28T12:30:58;102713.27;;;7.64;52.62
70916;BME280;58557;50.982;-3.222;2023-02-28T12:33:22;102711.01;;;8.35;51.98
70916;BME280;58557;50.982;-3.222;2023-02-28T12:35:49;102701.25;;;8.86;49.37
70916;BME280;58557;50.982;-3.222;2023-02-28T12:38:14;102699.42;;;8.41;49.11
70916;BME280;58557;50.982;-3.222;2023-02-28T12:40:44;102704.86;;;7.63;52.11
70916;BME280;58557;50.982;-3.222;2023-02-28T12:43:04;102708.31;;;6.23;55.67
70916;BME280;58557;50.982;-3.222;2023-02-28T12:45:31;102708.36;;;6.07;57.92
70916;BME280;58557;50.982;-3.222;2023-02-28T12:47:58;102702.87;;;5.94;58.20